createdAt,value
2019-04-11T13:50:51.759Z,978.59
2019-04-11T13:51:51.732Z,978.64
2019-04-11T13:52:51.711Z,978.63
2019-04-11T13:53:51.712Z,978.61
2019-04-11T13:54:51.725Z,978.64
2019-04-11T13:55:51.744Z,978.65
2019-04-11T13:56:51.758Z,978.67
2019-04-11T13:57:51.736Z,978.68
2019-04-11T13:58:51.724Z,978.62
2019-04-11T13:59:51.730Z,978.70
2019-04-11T14:00:51.763Z,978.54
2019-04-11T14:01:51.753Z,978.65
2019-04-11T14:02:51.728Z,978.65
2019-04-11T14:03:51.747Z,978.72
2019-04-11T14:04:54.220Z,978.72
2019-04-11T14:05:51.749Z,978.70
2019-04-11T14:06:51.754Z,978.67
2019-04-11T14:07:51.805Z,978.69
2019-04-11T14:08:51.735Z,978.69
2019-04-11T14:09:51.735Z,978.70
2019-04-11T14:10:51.748Z,978.59
2019-04-11T14:11:51.739Z,978.60
2019-04-11T14:12:51.751Z,978.68
2019-04-11T14:13:54.132Z,978.70
2019-04-11T14:14:51.982Z,978.67
2019-04-11T14:15:51.752Z,978.61
2019-04-11T14:16:51.755Z,978.53
2019-04-11T14:17:51.780Z,978.52
2019-04-11T14:18:51.749Z,978.53
2019-04-11T14:19:51.760Z,978.59
2019-04-11T14:20:51.787Z,978.52
2019-04-11T14:21:51.776Z,978.69
2019-04-11T14:22:51.769Z,978.68
2019-04-11T14:23:51.822Z,978.63
2019-04-11T14:24:51.796Z,978.72
2019-04-11T14:25:51.804Z,978.70
2019-04-11T14:26:51.843Z,978.68
2019-04-11T14:27:51.834Z,978.66
2019-04-11T14:28:51.876Z,978.75
2019-04-11T14:29:51.909Z,978.75
2019-04-11T14:30:52.494Z,978.75
2019-04-11T14:31:53.843Z,978.74
2019-04-11T14:32:53.910Z,978.71
2019-04-11T14:33:55.601Z,978.68
2019-04-11T14:34:51.932Z,978.75
2019-04-11T14:35:51.945Z,978.74
2019-04-11T14:36:51.940Z,978.68
2019-04-11T14:37:51.923Z,978.70
2019-04-11T14:38:52.297Z,978.74
2019-04-11T14:39:51.942Z,978.70
2019-04-11T14:41:01.190Z,978.77
2019-04-11T14:41:51.907Z,978.67
2019-04-11T14:42:51.906Z,978.62
2019-04-11T14:43:51.975Z,978.69
2019-04-11T14:44:51.932Z,978.72
2019-04-11T14:45:51.932Z,978.68
2019-04-11T14:46:51.955Z,978.65
2019-04-11T14:47:51.906Z,978.68
2019-04-11T14:48:51.909Z,978.72
2019-04-11T14:49:51.998Z,978.63
2019-04-11T14:50:51.922Z,978.73
2019-04-11T14:51:51.972Z,978.78
2019-04-11T14:52:51.975Z,978.68
2019-04-11T14:53:51.946Z,978.75
2019-04-11T14:54:51.940Z,978.76
2019-04-11T14:55:51.930Z,978.67
2019-04-11T14:56:52.402Z,978.66
2019-04-11T14:57:53.851Z,978.66
2019-04-11T14:58:53.870Z,978.62
2019-04-11T14:59:54.152Z,978.73
2019-04-11T15:00:53.927Z,978.73
2019-04-11T15:01:51.973Z,978.72
2019-04-11T15:02:51.942Z,978.81
2019-04-11T15:03:51.957Z,978.79
2019-04-11T15:04:51.955Z,978.74
2019-04-11T15:05:51.973Z,978.82
2019-04-11T15:06:51.991Z,978.71
2019-04-11T15:07:51.973Z,978.74
2019-04-11T15:08:51.972Z,978.69
2019-04-11T15:09:51.945Z,978.63
2019-04-11T15:10:51.966Z,978.66
2019-04-11T15:11:51.983Z,978.66
2019-04-11T15:12:51.977Z,978.77
2019-04-11T15:13:51.957Z,978.70
2019-04-11T15:14:52.036Z,978.81
2019-04-11T15:15:51.951Z,978.67
2019-04-11T15:16:51.950Z,978.67
2019-04-11T15:17:55.592Z,978.75
2019-04-11T15:18:51.967Z,978.73
2019-04-11T15:19:51.968Z,978.56
2019-04-11T15:20:55.174Z,978.64
2019-04-11T15:21:51.974Z,978.73
2019-04-11T15:22:51.988Z,978.80
2019-04-11T15:23:51.960Z,978.75
2019-04-11T15:24:51.974Z,978.72
2019-04-11T15:25:51.979Z,978.77
2019-04-11T15:26:52.004Z,978.78
2019-04-11T15:27:51.986Z,978.64
2019-04-11T15:28:51.997Z,978.75
2019-04-11T15:29:51.991Z,978.64
2019-04-11T15:30:51.955Z,978.77
2019-04-11T15:31:51.969Z,978.65
2019-04-11T15:32:51.974Z,978.60
2019-04-11T15:33:51.955Z,978.70
2019-04-11T15:34:53.076Z,978.70
2019-04-11T15:35:51.937Z,978.66
2019-04-11T15:36:51.970Z,978.67
2019-04-11T15:37:51.975Z,978.76
2019-04-11T15:38:51.988Z,978.70
2019-04-11T15:39:51.967Z,978.64
2019-04-11T15:40:51.971Z,978.75
2019-04-11T15:41:53.781Z,978.67
2019-04-11T15:42:51.979Z,978.69
2019-04-11T15:43:52.216Z,978.72
2019-04-11T15:44:51.999Z,978.69
2019-04-11T15:45:51.973Z,978.76
2019-04-11T15:46:52.001Z,978.82
2019-04-11T15:47:51.975Z,978.66
2019-04-11T15:48:53.795Z,978.80
2019-04-11T15:49:52.025Z,978.68
2019-04-11T15:50:52.003Z,978.74
2019-04-11T15:51:51.984Z,978.76
2019-04-11T15:52:51.999Z,978.80
2019-04-11T15:53:51.971Z,978.81
2019-04-11T15:54:51.977Z,978.82
2019-04-11T15:55:52.005Z,978.69
2019-04-11T15:56:52.032Z,978.91
2019-04-11T15:57:51.981Z,978.92
2019-04-11T15:58:52.039Z,978.87
2019-04-11T15:59:54.171Z,978.90
2019-04-11T16:00:51.978Z,978.91
2019-04-11T16:01:52.024Z,978.92
2019-04-11T16:02:52.015Z,978.91
2019-04-11T16:03:51.996Z,978.89
2019-04-11T16:04:51.992Z,978.87
2019-04-11T16:05:51.995Z,978.88
2019-04-11T16:06:51.990Z,978.95
2019-04-11T16:07:52.031Z,978.84
2019-04-11T16:08:51.978Z,978.92
2019-04-11T16:09:51.997Z,978.89
2019-04-11T16:10:51.986Z,978.94
2019-04-11T16:11:51.994Z,978.84
2019-04-11T16:12:51.999Z,978.93
2019-04-11T16:13:52.044Z,978.89
2019-04-11T16:14:52.008Z,978.94
2019-04-11T16:15:52.010Z,978.91
2019-04-11T16:16:52.004Z,978.87
2019-04-11T16:17:51.990Z,978.91
2019-04-11T16:18:51.985Z,978.96
2019-04-11T16:19:52.035Z,979.06
2019-04-11T16:20:52.012Z,979.00
2019-04-11T16:21:54.682Z,978.99
2019-04-11T16:22:54.964Z,978.87
2019-04-11T16:23:52.019Z,979.06
2019-04-11T16:24:52.010Z,979.03
2019-04-11T16:25:52.017Z,978.99
2019-04-11T16:26:52.020Z,979.00
2019-04-11T16:27:51.989Z,978.99
2019-04-11T16:28:52.027Z,979.16
2019-04-11T16:29:52.020Z,978.95
2019-04-11T16:30:52.010Z,978.98
2019-04-11T16:31:52.022Z,979.03
2019-04-11T16:32:52.021Z,979.09
2019-04-11T16:33:52.021Z,979.02
2019-04-11T16:34:55.783Z,978.94
2019-04-11T16:35:52.027Z,978.87
2019-04-11T16:36:51.981Z,978.97
2019-04-11T16:37:52.027Z,979.05
2019-04-11T16:38:52.046Z,979.07
2019-04-11T16:39:54.856Z,978.97
2019-04-11T16:40:53.454Z,979.02
2019-04-11T16:41:53.897Z,979.10
2019-04-11T16:42:53.792Z,979.03
2019-04-11T16:43:54.615Z,979.05
2019-04-11T16:44:54.851Z,979.13
2019-04-11T16:45:54.588Z,979.02
2019-04-11T16:46:54.866Z,979.07
2019-04-11T16:47:53.745Z,979.11
2019-04-11T16:48:55.648Z,979.03
2019-04-11T16:49:52.387Z,979.04
2019-04-11T16:50:52.041Z,979.02
2019-04-11T16:51:52.020Z,979.09
2019-04-11T16:52:52.052Z,978.94
2019-04-11T16:53:52.034Z,979.01
2019-04-11T16:54:52.031Z,978.95
2019-04-11T16:55:53.868Z,979.05
2019-04-11T16:56:52.047Z,978.98
2019-04-11T16:57:52.036Z,979.14
2019-04-11T16:58:52.035Z,978.93
2019-04-11T16:59:52.018Z,979.10
2019-04-11T17:00:52.657Z,979.12
2019-04-11T17:01:53.834Z,979.13
2019-04-11T17:02:54.745Z,979.21
2019-04-11T17:03:54.772Z,979.22
2019-04-11T17:04:55.646Z,979.18
2019-04-11T17:05:55.743Z,979.21
2019-04-11T17:06:55.410Z,979.25
2019-04-11T17:07:53.870Z,979.19
2019-04-11T17:08:56.082Z,979.22
2019-04-11T17:09:52.027Z,979.17
2019-04-11T17:10:52.038Z,979.29
2019-04-11T17:11:52.029Z,979.28
2019-04-11T17:12:53.856Z,979.16
2019-04-11T17:13:52.057Z,979.21
2019-04-11T17:14:52.062Z,979.24
2019-04-11T17:15:52.041Z,979.23
2019-04-11T17:16:52.046Z,979.20
2019-04-11T17:17:53.631Z,979.19
2019-04-11T17:18:52.048Z,979.36
2019-04-11T17:19:52.071Z,979.34
2019-04-11T17:20:52.059Z,979.34
2019-04-11T17:21:52.064Z,979.20
2019-04-11T17:22:52.049Z,979.38
2019-04-11T17:23:52.062Z,979.32
2019-04-11T17:24:52.045Z,979.41
2019-04-11T17:25:52.969Z,979.44
2019-04-11T17:26:52.785Z,979.39
2019-04-11T17:27:53.277Z,979.40
2019-04-11T17:28:54.331Z,979.37
2019-04-11T17:29:54.648Z,979.37
2019-04-11T17:30:55.050Z,979.44
2019-04-11T17:31:55.625Z,979.48
2019-04-11T17:32:55.366Z,979.48
2019-04-11T17:33:52.076Z,979.43
2019-04-11T17:34:52.079Z,979.44
2019-04-11T17:35:52.049Z,979.57
2019-04-11T17:36:52.075Z,979.54
2019-04-11T17:37:52.075Z,979.53
2019-04-11T17:38:52.088Z,979.55
2019-04-11T17:39:52.041Z,979.48
2019-04-11T17:40:52.099Z,979.59
2019-04-11T17:41:52.067Z,979.49
2019-04-11T17:42:52.100Z,979.56
2019-04-11T17:43:52.101Z,979.58
2019-04-11T17:44:52.101Z,979.63
2019-04-11T17:45:52.061Z,979.60
2019-04-11T17:46:52.068Z,979.60
2019-04-11T17:47:52.048Z,979.56
2019-04-11T17:48:52.081Z,979.68
2019-04-11T17:49:52.079Z,979.73
2019-04-11T17:50:52.080Z,979.75
2019-04-11T17:51:55.970Z,979.68
2019-04-11T17:52:54.385Z,979.69
2019-04-11T17:53:54.808Z,979.78
2019-04-11T17:54:54.165Z,979.68
2019-04-11T17:55:54.075Z,979.83
2019-04-11T17:56:54.581Z,979.78
2019-04-11T17:57:52.071Z,979.89
2019-04-11T17:58:52.088Z,979.91
2019-04-11T17:59:52.074Z,979.88
2019-04-11T18:00:52.079Z,979.87
2019-04-11T18:01:52.098Z,979.91
2019-04-11T18:02:52.726Z,979.93
2019-04-11T18:03:52.058Z,979.96
2019-04-11T18:04:52.201Z,979.98
2019-04-11T18:05:52.075Z,980.05
2019-04-11T18:06:52.093Z,980.03
2019-04-11T18:07:52.147Z,980.01
2019-04-11T18:08:52.206Z,980.12
2019-04-11T18:09:55.791Z,980.18
2019-04-11T18:10:55.730Z,980.14
2019-04-11T18:11:55.802Z,980.11
2019-04-11T18:12:55.770Z,980.18
2019-04-11T18:13:52.134Z,980.18
2019-04-11T18:14:52.123Z,980.24
2019-04-11T18:15:52.059Z,980.18
2019-04-11T18:16:52.077Z,980.21
2019-04-11T18:17:52.084Z,980.35
2019-04-11T18:18:52.114Z,980.26
2019-04-11T18:19:52.109Z,980.23
2019-04-11T18:20:52.097Z,980.19
2019-04-11T18:21:52.085Z,980.32
2019-04-11T18:22:52.099Z,980.18
2019-04-11T18:23:52.109Z,980.30
2019-04-11T18:24:52.122Z,980.30
2019-04-11T18:25:52.203Z,980.28
2019-04-11T18:26:52.508Z,980.32
2019-04-11T18:27:52.468Z,980.31
2019-04-11T18:28:52.603Z,980.31
2019-04-11T18:29:52.991Z,980.33
2019-04-11T18:30:54.081Z,980.31
2019-04-11T18:31:52.105Z,980.45
2019-04-11T18:32:52.091Z,980.42
2019-04-11T18:33:52.088Z,980.43
2019-04-11T18:34:52.104Z,980.29
2019-04-11T18:35:52.114Z,980.31
2019-04-11T18:36:52.106Z,980.48
2019-04-11T18:37:52.125Z,980.36
2019-04-11T18:38:52.098Z,980.31
2019-04-11T18:39:52.105Z,980.37
2019-04-11T18:40:52.139Z,980.36
2019-04-11T18:41:52.092Z,980.36
2019-04-11T18:42:52.127Z,980.38
2019-04-11T18:43:52.121Z,980.38
2019-04-11T18:44:52.116Z,980.41
2019-04-11T18:45:52.138Z,980.42
2019-04-11T18:46:52.132Z,980.46
2019-04-11T18:47:52.123Z,980.49
2019-04-11T18:48:54.396Z,980.51
2019-04-11T18:49:53.221Z,980.44
2019-04-11T18:50:53.199Z,980.50
2019-04-11T18:51:53.081Z,980.56
2019-04-11T18:52:52.110Z,980.58
2019-04-11T18:53:52.104Z,980.53
2019-04-11T18:54:52.110Z,980.65
2019-04-11T18:55:52.106Z,980.59
2019-04-11T18:56:52.091Z,980.57
2019-04-11T18:57:52.346Z,980.65
2019-04-11T18:58:52.115Z,980.65
2019-04-11T18:59:52.120Z,980.69
2019-04-11T19:00:52.143Z,980.57
2019-04-11T19:01:52.140Z,980.61
2019-04-11T19:02:52.112Z,980.63
2019-04-11T19:03:52.104Z,980.71
2019-04-11T19:04:52.149Z,980.61
2019-04-11T19:05:52.116Z,980.64
2019-04-11T19:06:52.145Z,980.64
2019-04-11T19:07:52.124Z,980.77
2019-04-11T19:08:52.133Z,980.65
2019-04-11T19:09:52.131Z,980.71
2019-04-11T19:10:52.164Z,980.78
2019-04-11T19:11:52.167Z,980.77
2019-04-11T19:12:52.208Z,980.88
2019-04-11T19:13:52.205Z,980.89
2019-04-11T19:14:52.220Z,980.78
2019-04-11T19:15:52.219Z,980.85
2019-04-11T19:16:52.238Z,980.85
2019-04-11T19:18:05.691Z,980.84
2019-04-11T19:18:52.258Z,980.80
2019-04-11T19:19:52.259Z,980.79
2019-04-11T19:20:52.240Z,980.76
2019-04-11T19:21:52.257Z,980.72
2019-04-11T19:22:52.271Z,980.80
2019-04-11T19:23:52.267Z,980.80
2019-04-11T19:24:52.265Z,980.69
2019-04-11T19:25:52.266Z,980.81
2019-04-11T19:26:52.263Z,980.79
2019-04-11T19:27:54.217Z,980.87
2019-04-11T19:28:54.860Z,980.73
2019-04-11T19:29:55.618Z,980.79
2019-04-11T19:30:53.995Z,980.75
2019-04-11T19:31:52.250Z,980.76
2019-04-11T19:32:52.267Z,980.68
2019-04-11T19:33:52.450Z,980.73
2019-04-11T19:34:52.255Z,980.68
2019-04-11T19:35:52.276Z,980.77
2019-04-11T19:36:52.281Z,980.71
2019-04-11T19:37:52.313Z,980.77
2019-04-11T19:38:52.287Z,980.68
2019-04-11T19:39:52.278Z,980.72
2019-04-11T19:40:52.281Z,980.76
2019-04-11T19:41:52.257Z,980.76
2019-04-11T19:42:52.306Z,980.71
2019-04-11T19:43:52.314Z,980.71
2019-04-11T19:44:52.253Z,980.76
2019-04-11T19:45:52.287Z,980.74
2019-04-11T19:46:52.282Z,980.65
2019-04-11T19:47:52.903Z,980.59
2019-04-11T19:48:55.406Z,980.79
2019-04-11T19:49:52.297Z,980.75
2019-04-11T19:50:52.283Z,980.82
2019-04-11T19:51:52.293Z,980.75
2019-04-11T19:52:52.294Z,980.75
2019-04-11T19:53:52.287Z,980.80
2019-04-11T19:54:52.255Z,980.75
2019-04-11T19:55:52.487Z,980.72
2019-04-11T19:56:52.267Z,980.73
2019-04-11T19:57:52.288Z,980.69
2019-04-11T19:58:52.310Z,980.67
2019-04-11T19:59:52.314Z,980.68
2019-04-11T20:00:53.915Z,980.64
2019-04-11T20:01:53.268Z,980.61
2019-04-11T20:02:54.102Z,980.62
2019-04-11T20:03:54.144Z,980.73
2019-04-11T20:04:52.300Z,980.72
2019-04-11T20:05:52.298Z,980.70
2019-04-11T20:06:52.281Z,980.75
2019-04-11T20:07:52.276Z,980.69
2019-04-11T20:08:52.303Z,980.84
2019-04-11T20:09:52.261Z,980.83
2019-04-11T20:10:52.328Z,980.81
2019-04-11T20:11:52.316Z,980.79
2019-04-11T20:12:52.276Z,980.72
2019-04-11T20:13:52.338Z,980.77
2019-04-11T20:14:52.313Z,980.81
2019-04-11T20:15:52.370Z,980.78
2019-04-11T20:16:52.389Z,980.84
2019-04-11T20:17:52.362Z,980.84
2019-04-11T20:18:56.668Z,980.78
2019-04-11T20:20:00.833Z,980.81
2019-04-11T20:20:52.441Z,980.78
2019-04-11T20:21:52.407Z,980.79
2019-04-11T20:22:59.007Z,980.82
2019-04-11T20:23:52.389Z,980.82
2019-04-11T20:24:52.418Z,980.94
2019-04-11T20:25:52.378Z,980.89
2019-04-11T20:26:52.388Z,980.83
2019-04-11T20:27:52.425Z,980.85
2019-04-11T20:28:52.397Z,980.75
2019-04-11T20:29:55.301Z,980.88
2019-04-11T20:30:52.361Z,980.73
2019-04-11T20:31:52.408Z,980.75
2019-04-11T20:32:52.413Z,980.80
2019-04-11T20:33:52.404Z,980.86
2019-04-11T20:34:52.401Z,980.78
2019-04-11T20:35:52.388Z,980.71
2019-04-11T20:36:52.393Z,980.67
2019-04-11T20:37:54.228Z,980.73
2019-04-11T20:38:52.436Z,980.67
2019-04-11T20:39:52.390Z,980.76
2019-04-11T20:40:53.230Z,980.66
2019-04-11T20:41:53.527Z,980.71
2019-04-11T20:42:54.410Z,980.66
2019-04-11T20:43:55.887Z,980.68
2019-04-11T20:44:52.393Z,980.71
2019-04-11T20:45:53.479Z,980.70
2019-04-11T20:46:52.408Z,980.68
2019-04-11T20:47:52.414Z,980.73
2019-04-11T20:48:54.578Z,980.73
2019-04-11T20:49:52.431Z,980.68
2019-04-11T20:50:52.408Z,980.73
2019-04-11T20:51:52.497Z,980.65
2019-04-11T20:52:52.429Z,980.54
2019-04-11T20:53:52.407Z,980.60
2019-04-11T20:54:52.441Z,980.61
2019-04-11T20:55:52.439Z,980.59
2019-04-11T20:56:52.416Z,980.63
2019-04-11T20:57:52.420Z,980.60
2019-04-11T20:58:52.471Z,980.64
2019-04-11T20:59:52.459Z,980.60
2019-04-11T21:00:55.658Z,980.61
2019-04-11T21:01:53.698Z,980.58
2019-04-11T21:02:52.421Z,980.66
2019-04-11T21:03:52.422Z,980.63
2019-04-11T21:04:52.465Z,980.66
2019-04-11T21:05:52.443Z,980.63
2019-04-11T21:06:52.459Z,980.73
2019-04-11T21:07:52.452Z,980.72
2019-04-11T21:08:52.431Z,980.69
2019-04-11T21:09:52.400Z,980.67
2019-04-11T21:10:52.479Z,980.72
2019-04-11T21:11:52.452Z,980.72
2019-04-11T21:12:52.449Z,980.80
2019-04-11T21:13:52.468Z,980.81
2019-04-11T21:14:52.433Z,980.78
2019-04-11T21:15:52.435Z,980.84
2019-04-11T21:16:52.430Z,980.79
2019-04-11T21:17:53.623Z,980.88
2019-04-11T21:18:54.497Z,980.79
2019-04-11T21:19:53.274Z,980.79
2019-04-11T21:20:55.047Z,980.82
2019-04-11T21:21:53.330Z,980.86
2019-04-11T21:22:54.012Z,980.78
2019-04-11T21:23:52.461Z,980.77
2019-04-11T21:24:52.449Z,980.77
2019-04-11T21:25:52.623Z,980.87
2019-04-11T21:26:52.448Z,980.86
2019-04-11T21:27:52.439Z,980.89
2019-04-11T21:28:52.439Z,980.82
2019-04-11T21:29:52.456Z,980.87
2019-04-11T21:30:52.460Z,980.86
2019-04-11T21:31:52.441Z,980.88
2019-04-11T21:32:52.431Z,980.91
2019-04-11T21:33:52.455Z,980.95
2019-04-11T21:34:52.435Z,981.01
2019-04-11T21:35:52.464Z,980.91
2019-04-11T21:36:52.449Z,980.90
2019-04-11T21:37:52.488Z,980.88
2019-04-11T21:38:52.439Z,980.91
2019-04-11T21:39:52.450Z,980.95
2019-04-11T21:40:52.459Z,980.90
2019-04-11T21:41:52.466Z,980.90
2019-04-11T21:42:52.433Z,980.96
2019-04-11T21:43:52.463Z,980.89
2019-04-11T21:44:52.465Z,980.93
2019-04-11T21:45:52.464Z,980.89
2019-04-11T21:46:52.441Z,980.91
2019-04-11T21:47:52.424Z,980.94
2019-04-11T21:48:52.464Z,980.89
2019-04-11T21:49:52.481Z,981.03
2019-04-11T21:50:52.448Z,980.93
2019-04-11T21:51:52.461Z,980.95
2019-04-11T21:52:52.448Z,980.96
2019-04-11T21:53:52.463Z,980.99
2019-04-11T21:54:52.470Z,981.04
2019-04-11T21:55:52.479Z,980.99
2019-04-11T21:56:52.482Z,980.94
2019-04-11T21:57:52.467Z,981.02
2019-04-11T21:58:52.498Z,980.91
2019-04-11T21:59:52.479Z,981.01
2019-04-11T22:00:54.337Z,980.87
2019-04-11T22:01:54.110Z,981.00
2019-04-11T22:02:54.375Z,980.89
2019-04-11T22:03:55.772Z,980.96
2019-04-11T22:04:52.496Z,981.03
2019-04-11T22:05:52.485Z,981.00
2019-04-11T22:06:52.481Z,981.01
2019-04-11T22:07:52.467Z,980.97
2019-04-11T22:08:52.481Z,980.97
2019-04-11T22:09:52.456Z,980.98
2019-04-11T22:10:52.506Z,980.96
2019-04-11T22:11:52.468Z,981.01
2019-04-11T22:12:52.480Z,981.01
2019-04-11T22:13:52.465Z,981.02
2019-04-11T22:14:52.470Z,981.02
2019-04-11T22:15:52.495Z,981.03
2019-04-11T22:16:54.928Z,981.02
2019-04-11T22:17:52.495Z,981.04
2019-04-11T22:18:52.493Z,981.12
2019-04-11T22:19:52.469Z,981.08
2019-04-11T22:20:52.472Z,981.14
2019-04-11T22:21:52.465Z,981.01
2019-04-11T22:22:52.510Z,981.00
2019-04-11T22:23:52.477Z,981.03
2019-04-11T22:24:52.478Z,981.14
2019-04-11T22:25:52.477Z,981.03
2019-04-11T22:26:52.485Z,981.02
2019-04-11T22:27:53.895Z,981.09
2019-04-11T22:28:54.931Z,980.95
2019-04-11T22:29:54.963Z,981.07
2019-04-11T22:30:54.889Z,980.96
2019-04-11T22:31:55.817Z,981.02
2019-04-11T22:32:52.488Z,980.97
2019-04-11T22:33:52.492Z,981.10
2019-04-11T22:34:52.533Z,980.99
2019-04-11T22:35:52.489Z,981.08
2019-04-11T22:36:52.511Z,981.03
2019-04-11T22:37:52.482Z,981.01
2019-04-11T22:38:52.483Z,980.94
2019-04-11T22:39:52.490Z,981.04
2019-04-11T22:40:52.509Z,981.07
2019-04-11T22:41:52.486Z,980.94
2019-04-11T22:42:52.520Z,981.09
2019-04-11T22:43:52.483Z,980.99
2019-04-11T22:44:52.502Z,981.05
2019-04-11T22:45:52.469Z,980.97
2019-04-11T22:46:52.526Z,981.03
2019-04-11T22:47:52.504Z,981.09
2019-04-11T22:48:52.514Z,981.11
2019-04-11T22:49:52.505Z,980.94
2019-04-11T22:50:52.499Z,981.04
2019-04-11T22:51:52.508Z,980.94
2019-04-11T22:52:52.516Z,981.01
2019-04-11T22:54:00.304Z,980.91
2019-04-11T22:54:52.520Z,981.02
2019-04-11T22:55:52.501Z,981.05
2019-04-11T22:56:52.490Z,981.07
2019-04-11T22:57:52.506Z,980.99
2019-04-11T22:58:52.506Z,980.98
2019-04-11T22:59:52.529Z,981.07
2019-04-11T23:00:52.528Z,981.05
2019-04-11T23:01:52.501Z,980.99
2019-04-11T23:02:52.477Z,981.07
2019-04-11T23:03:52.502Z,980.99
2019-04-11T23:04:52.523Z,981.00
2019-04-11T23:05:52.516Z,981.02
2019-04-11T23:06:52.542Z,980.99
2019-04-11T23:07:52.534Z,981.02
2019-04-11T23:08:52.504Z,980.98
2019-04-11T23:09:52.518Z,980.98
2019-04-11T23:10:52.527Z,981.05
2019-04-11T23:11:52.527Z,981.11
2019-04-11T23:12:52.545Z,980.90
2019-04-11T23:13:52.538Z,980.94
2019-04-11T23:14:52.505Z,980.99
2019-04-11T23:15:52.514Z,981.02
2019-04-11T23:16:52.514Z,981.06
2019-04-11T23:17:52.523Z,981.06
2019-04-11T23:18:52.532Z,980.98
2019-04-11T23:19:52.556Z,981.01
2019-04-11T23:20:52.508Z,981.05
2019-04-11T23:21:52.503Z,981.00
2019-04-11T23:22:52.512Z,981.04
2019-04-11T23:23:52.537Z,981.00
2019-04-11T23:24:52.560Z,981.00
2019-04-11T23:25:52.533Z,981.01
2019-04-11T23:26:52.526Z,980.95
2019-04-11T23:27:52.519Z,980.91
2019-04-11T23:28:52.560Z,981.01
2019-04-11T23:29:52.534Z,980.96
2019-04-11T23:30:52.535Z,980.96
2019-04-11T23:31:52.529Z,981.02
2019-04-11T23:32:52.509Z,980.97
2019-04-11T23:33:52.672Z,980.95
2019-04-11T23:34:53.296Z,980.92
2019-04-11T23:35:52.521Z,980.99
2019-04-11T23:36:52.539Z,981.02
2019-04-11T23:37:52.551Z,980.94
2019-04-11T23:38:52.960Z,981.01
2019-04-11T23:39:52.515Z,980.85
2019-04-11T23:40:52.560Z,980.94
2019-04-11T23:41:52.539Z,980.97
2019-04-11T23:42:52.530Z,980.94
2019-04-11T23:43:52.565Z,980.98
2019-04-11T23:44:52.547Z,980.99
2019-04-11T23:45:52.509Z,980.85
2019-04-11T23:46:52.702Z,980.85
2019-04-11T23:47:54.121Z,981.11
2019-04-11T23:48:55.540Z,980.78
2019-04-11T23:49:55.141Z,980.91
2019-04-11T23:50:54.801Z,980.91
2019-04-11T23:51:55.656Z,980.81
2019-04-11T23:52:57.048Z,980.96
2019-04-11T23:53:52.572Z,980.96
2019-04-11T23:54:52.565Z,980.95
2019-04-11T23:55:52.565Z,980.92
2019-04-11T23:56:52.529Z,980.95
2019-04-11T23:57:52.531Z,980.94
2019-04-11T23:58:52.562Z,980.93
2019-04-11T23:59:52.573Z,980.96
